• Join FlightAware (Why Join?)
  • Login
  • US Flag 
Gobble Gobble! 
10:19PM EST


 

Airport Tracker/Info


-or-


 

Live Flight TrackerFlight Track Log ✈ N595PC ✈ 02-May-2014 ✈ KPIA - KCLE

Flight Track Log - Related Links

Times and Time Zones

All times are in EDT time to prevent confusion due to time zone crossing. See the N595PC flight status page for this flight to view local times or setup timezone preferences in your user account.

Time Position Orientation Groundspeed Altitude Reporting Facility
EDT Latitude Longitude Course Direction KTS MPH feet Rate Location/Type
12:13PM 40.6336 -89.6928 114° Southeast 191 220 2,500  Level Chicago Center
12:14PM 40.6119 -89.6278 114° Southeast 214 246 6,000 2,940 Climbing Chicago Center
12:15PM 40.6319 -89.5375 74° East 252 290 8,600 2,760 Climbing Chicago Center
12:16PM 40.6667 -89.4169 69° East 292 336 11,800 2,820 Climbing Chicago Center
12:17PM 40.6922 -89.3081 73° East 305 351 14,500 2,580 Climbing Chicago Center
12:18PM 40.7228 -89.1994 70° East 312 359 17,200 2,520 Climbing Chicago Center
12:19PM 40.7494 -89.0925 72° East 311 358 19,800 2,460 Climbing Chicago Center
12:20PM 40.7778 -88.9869 70° East 309 356 22,300 2,280 Climbing Chicago Center
12:21PM 40.8044 -88.8836 71° East 300 345 24,600 2,220 Climbing Chicago Center
12:22PM 40.8350 -88.7603 72° East 301 346 26,900 1,980 Climbing Chicago Center
12:23PM 40.8631 -88.6547 71° East 304 350 28,700 1,680 Climbing Chicago Center
12:24PM 40.8894 -88.5461 72° East 307 353 30,400 1,440 Climbing Chicago Center
12:25PM 40.9194 -88.4375 70° East 311 358 31,700 1,200 Climbing Chicago Center
12:26PM 40.9514 -88.2992 73° East 324 373 32,900 600 Climbing Chicago Center
12:27PM 40.9842 -88.1781 70° East 347 399 33,000  Climbing Chicago Center
12:28PM 41.0158 -88.0447 72° East 377 434 33,000  Level Chicago Center
12:29PM 41.0500 -87.9078 72° East 392 451 33,000  Level Chicago Center
12:30PM 41.0861 -87.7686 71° East 398 458 33,000  Level Chicago Center
12:31PM 41.1258 -87.5981 73° East 405 466 33,000  Level Chicago Center
12:32PM 41.1631 -87.4569 71° East 406 467 33,000  Level Chicago Center
12:33PM 41.1947 -87.3117 74° East 410 472 33,000  Level Chicago Center
12:34PM 41.2319 -87.1667 71° East 412 474 33,000  Level Chicago Center
12:36PM 41.2661 -87.0197 73° East 416 479 33,000  Level Chicago Center
12:37PM 41.3089 -86.8417 72° East 419 482 33,000  Level Chicago Center
12:38PM 41.3383 -86.7111 73° East 420 483 33,000  Level Chicago Center
12:39PM 41.3803 -86.5331 73° East 421 484 33,000  Level Chicago Center
12:40PM 41.4156 -86.3844 72° East 420 483 33,000  Level Chicago Center
12:41PM 41.4483 -86.2342 74° East 421 484 33,000  Level Chicago Center
12:42PM 41.4847 -86.0858 72° East 420 483 33,000  Level Chicago Center
12:43PM 41.5167 -85.9364 74° East 419 482 33,000  Level Chicago Center
12:44PM 41.5508 -85.7872 73° East 419 482 33,000  Level Chicago Center
12:45PM 41.5911 -85.6050 73° East 424 488 33,000  Level Chicago Center
12:46PM 41.6225 -85.4656 73° East 421 484 33,000  Level Chicago Center
12:47PM 41.6558 -85.3133 74° East 422 486 33,000  Level Chicago Center
12:48PM 41.6961 -85.1322 73° East 442 509 33,000  Level Chicago Center
12:49PM 41.7306 -84.9811 73° East 430 495 33,000  Level Chicago Center
12:50PM 41.7628 -84.8253 74° East 437 503 33,000  Level Chicago Center
12:51PM 41.7819 -84.7331 74° East 430 495 33,000  Level Cleveland Center
12:52PM 41.8161 -84.5789 73° East 432 497 33,000  Level Cleveland Center
12:53PM 41.8494 -84.4239 74° East 433 498 33,000  Level Cleveland Center
12:54PM 41.8831 -84.2569 75° East 433 498 33,000 -540 Level Cleveland Center
12:55PM 41.9175 -84.1017 73° East 434 499 31,900 -1,800 Descending Cleveland Center
12:56PM 41.9528 -83.9225 75° East 412 474 29,400 -2,220 Descending Cleveland Center
12:57PM 41.9833 -83.7797 74° East 402 463 27,400 -1,800 Descending Cleveland Center
12:58PM 42.0103 -83.6381 76° East 399 459 25,700 -1,680 Descending Cleveland Center
12:59PM 42.0425 -83.4931 73° East 397 457 24,000 -1,680 Descending Cleveland Center
01:00PM 42.0364 -83.3483 93° East 384 442 22,300 -1,800 Descending Cleveland Center
01:01PM 42.0233 -83.1911 96° East 381 438 20,400 -1,800 Descending Cleveland Center
01:02PM 42.0083 -83.0558 98° East 374 430 18,700 -1,740 Descending Cleveland Center
01:03PM 41.9972 -82.9244 96° East 361 415 16,900 -1,680 Descending Cleveland Center
01:04PM 41.9828 -82.7944 98° East 357 411 15,300 -1,320 Descending Cleveland Center
01:05PM 41.9719 -82.6681 97° East 346 398 14,200 -660 Descending Cleveland Center
01:06PM 41.9511 -82.5181 101° East 344 396 14,000 -420 Descending Cleveland Center
01:07PM 41.9300 -82.4619 117° Southeast 345 397 13,600 -1,200 Descending Cleveland Center
01:07PM 41.9111 -82.4033 113° Southeast 343 395 12,800 -1,680 Descending Cleveland Center
01:07PM 41.9006 -82.3753 117° Southeast 329 379 12,300 -1,800 Descending Cleveland Center
01:08PM 41.8775 -82.2900 110° East 331 381 11,000 -1,800 Descending Cleveland Center
01:09PM 41.8628 -82.2422 112° Southeast 329 379 10,300 -1,080 Descending Cleveland Center
01:09PM 41.8311 -82.1914 130° Southeast 323 372 9,900 -420 Descending Cleveland Center
01:10PM 41.8058 -82.1569 135° Southeast 306 352 9,900 -1,080 Level Cleveland Center
01:10PM 41.7694 -82.0961 129° Southeast 296 341 8,800 -1,560 Descending Cleveland Center
01:11PM 41.7508 -82.0692 133° Southeast 283 326 8,200 -1,800 Descending Cleveland Center
01:11PM 41.7181 -82.0125 128° Southeast 292 336 7,000 -1,800 Descending Cleveland Center
01:12PM 41.6983 -81.9817 131° Southeast 278 320 6,200 -1,980 Descending Cleveland Center
01:12PM 41.6617 -81.9225 130° Southeast 265 305 4,700 -1,380 Descending Cleveland Center
01:13PM 41.6256 -81.8550 126° Southeast 270 311 4,000 -900 Descending Cleveland Center
01:14PM 41.6150 -81.8364 127° Southeast 264 304 3,700 -1,020 Descending Cleveland Center
01:14PM 41.5786 -81.7922 138° Southeast 245 282 3,000 -720 Descending Cleveland Center
01:15PM 41.5656 -81.7808 147° Southeast 227 261 3,000  Level Cleveland Center
01:15PM 41.5228 -81.7489 151° Southeast 234 269 3,000 -180 Level Cleveland Center
01:16PM 41.4772 -81.7497 181° South 190 219 2,700 -540 Descending Cleveland Center
01:17PM 41.4539 -81.7881 231° Southwest 150 173 2,000 -780 Descending Cleveland Center
01:19PM 41.4281 -81.8300 231° Southwest 132 152 1,200 -720 Descending Cleveland Center
01:19PM 41.4239 -81.8361 228° Southwest 117 135 1,100 -420 Descending Cleveland Center
01:20PM 41.4094 -81.8578 228° Southwest 119 137 800 -420 Descending Cleveland Center